Time;durP1;ratioP1;P1;durP2;ratioP2;P2;SDS_P1;SDS_P2;PMS_P1;PMS_P2;Temp;Humidity;BMP_temperature;BMP_pressure;BME280_temperature;BME280_humidity;BME280_pressure;Samples;Min_cycle;Max_cycle;Signal;HPM_P1;HPM_P2
2023/12/18 00:01:25;;;;;;;5.82;3.10;;;;;;;-0.96;100.00;96481.19;4993636;28;20213;-77
2023/12/18 00:03:52;;;;;;;9.05;3.13;;;;;;;-0.81;100.00;96479.06;4992813;28;20213;-76
2023/12/18 00:06:20;;;;;;;5.03;2.90;;;;;;;-0.92;100.00;96485.03;4993161;28;20571;-77
2023/12/18 00:08:47;;;;;;;6.70;3.17;;;;;;;-0.76;100.00;96487.22;4993178;28;20632;-75
2023/12/18 00:11:14;;;;;;;7.90;3.47;;;;;;;-0.79;100.00;96484.97;4993135;28;20288;-76
2023/12/18 00:13:41;;;;;;;6.20;3.08;;;;;;;-0.76;100.00;96484.56;4992646;28;20220;-74
2023/12/18 00:16:08;;;;;;;7.05;3.25;;;;;;;-0.68;100.00;96475.53;4992863;28;20268;-74
2023/12/18 00:18:35;;;;;;;1.20;0.85;;;;;;;-0.77;100.00;96477.63;4993329;28;20248;-75
2023/12/18 00:21:03;;;;;;;0.35;0.35;;;;;;;-0.76;99.96;96473.94;4992902;28;20214;-74
2023/12/18 00:23:31;;;;;;;1.02;1.00;;;;;;;-0.86;100.00;96467.44;4993198;28;20598;-75
2023/12/18 00:25:58;;;;;;;0.20;0.20;;;;;;;-0.92;100.00;96468.25;4992574;28;20275;-74
2023/12/18 00:28:24;;;;;;;0.43;0.43;;;;;;;-1.30;100.00;96473.47;4992591;28;20240;-75
2023/12/18 00:30:51;;;;;;;8.40;2.95;;;;;;;-1.25;100.00;96458.56;4992282;28;20613;-75
2023/12/18 00:33:18;;;;;;;9.25;3.35;;;;;;;-1.18;100.00;96454.03;4989996;28;20260;-75
2023/12/18 00:35:45;;;;;;;7.82;3.45;;;;;;;-1.35;100.00;96449.34;4982828;28;20213;-74
2023/12/18 00:38:11;;;;;;;0.22;0.22;;;;;;;-1.26;100.00;96453.44;4992336;28;20280;-74
2023/12/18 00:40:40;;;;;;;0.65;0.65;;;;;;;-1.20;100.00;96449.94;4991904;28;20217;-76
2023/12/18 00:43:06;;;;;;;0.43;0.43;;;;;;;-1.17;100.00;96450.34;4992870;28;20312;-74
2023/12/18 00:45:33;;;;;;;2.67;1.55;;;;;;;-0.99;100.00;96441.69;4991669;28;20616;-75
2023/12/18 00:48:00;;;;;;;0.20;0.20;;;;;;;-1.02;100.00;96436.78;4992277;28;20552;-74
2023/12/18 00:50:26;;;;;;;5.55;3.50;;;;;;;-1.30;100.00;96444.25;4992835;28;20218;-76
2023/12/18 00:52:53;;;;;;;6.18;3.60;;;;;;;-1.18;100.00;96461.19;4992576;28;20552;-76
2023/12/18 00:55:20;;;;;;;10.63;4.07;;;;;;;-1.17;100.00;96457.50;4992780;28;20237;-76
2023/12/18 00:57:48;;;;;;;7.85;4.57;;;;;;;-0.95;100.00;96448.22;4991900;28;20276;-75
2023/12/18 01:00:15;;;;;;;6.85;3.72;;;;;;;-1.02;100.00;96444.78;4992306;28;20217;-74
2023/12/18 01:02:42;;;;;;;13.93;3.90;;;;;;;-0.96;100.00;96443.94;4992251;28;20213;-75
2023/12/18 01:05:10;;;;;;;12.27;4.50;;;;;;;-0.96;100.00;96440.47;4991721;28;20251;-76
2023/12/18 01:07:37;;;;;;;8.77;4.78;;;;;;;-1.23;100.00;96429.09;4991935;28;20324;-76
2023/12/18 01:10:04;;;;;;;5.78;2.88;;;;;;;-1.13;100.00;96429.47;4992139;28;20610;-75
2023/12/18 01:12:30;;;;;;;9.75;3.42;;;;;;;-1.22;100.00;96430.72;4991103;28;20213;-75
2023/12/18 01:14:58;;;;;;;7.28;3.45;;;;;;;-1.37;100.00;96412.38;4991797;28;20222;-75
2023/12/18 01:17:25;;;;;;;6.40;3.47;;;;;;;-1.20;100.00;96428.66;4991764;28;20213;-76
2023/12/18 01:19:52;;;;;;;7.32;3.38;;;;;;;-1.33;100.00;96431.34;4991561;28;20209;-77
2023/12/18 01:22:19;;;;;;;7.75;3.63;;;;;;;-1.01;100.00;96422.47;4991836;28;20225;-77
2023/12/18 01:24:46;;;;;;;8.65;3.38;;;;;;;-1.01;100.00;96406.50;4991434;28;20217;-77
2023/12/18 01:27:12;;;;;;;7.47;3.30;;;;;;;-1.27;100.00;96411.94;4991867;28;20230;-77
2023/12/18 01:29:40;;;;;;;6.50;3.75;;;;;;;-1.22;100.00;96417.41;4991494;28;20220;-76
2023/12/18 01:32:09;;;;;;;6.95;3.17;;;;;;;-1.34;100.00;96411.13;4991592;28;20210;-76
2023/12/18 01:34:36;;;;;;;0.80;0.80;;;;;;;-1.19;100.00;96404.53;4978458;28;20209;-74
2023/12/18 01:37:05;;;;;;;5.05;2.95;;;;;;;-0.95;100.00;96395.00;4990963;28;20256;-75
2023/12/18 01:39:32;;;;;;;0.57;0.57;;;;;;;-1.07;100.00;96396.72;4991059;28;20710;-75
2023/12/18 01:42:00;;;;;;;0.60;0.60;;;;;;;-1.12;100.00;96399.19;4991441;28;20622;-74
2023/12/18 01:44:26;;;;;;;2.55;0.77;;;;;;;-1.11;100.00;96385.69;4991374;28;20217;-76
2023/12/18 01:46:54;;;;;;;0.50;0.47;;;;;;;-1.07;100.00;96381.56;4997344;28;20201;-74
2023/12/18 01:49:23;;;;;;;0.20;0.20;;;;;;;-1.07;100.00;96375.44;4990949;28;20220;-75
2023/12/18 01:51:51;;;;;;;0.20;0.20;;;;;;;-1.15;100.00;96373.84;4991093;28;20240;-75
2023/12/18 01:54:19;;;;;;;0.20;0.20;;;;;;;-0.93;100.00;96366.38;4991034;28;20217;-75
2023/12/18 01:56:47;;;;;;;0.68;0.68;;;;;;;-0.70;100.00;96373.84;4991119;28;20224;-75
2023/12/18 01:59:14;;;;;;;0.98;0.93;;;;;;;-0.61;100.00;96374.38;4991178;28;20249;-75
2023/12/18 02:01:43;;;;;;;0.20;0.20;;;;;;;-0.55;100.00;96373.53;4991072;28;20308;-75
2023/12/18 02:04:10;;;;;;;0.73;0.73;;;;;;;-0.65;100.00;96370.50;4990559;28;20301;-75
2023/12/18 02:06:38;;;;;;;2.38;1.52;;;;;;;-0.90;100.00;96381.91;4990907;28;20614;-76
2023/12/18 02:09:05;;;;;;;0.20;0.20;;;;;;;-1.51;100.00;96384.19;4991222;28;20590;-76
2023/12/18 02:11:33;;;;;;;0.40;0.40;;;;;;;-1.70;100.00;96390.38;4990764;28;20268;-75
2023/12/18 02:14:00;;;;;;;0.30;0.30;;;;;;;-1.80;100.00;96378.34;4991149;28;20561;-75
2023/12/18 02:16:27;;;;;;;1.85;1.00;;;;;;;-1.48;100.00;96383.75;4991153;28;20206;-75
2023/12/18 02:18:54;;;;;;;1.08;0.82;;;;;;;-1.26;100.00;96376.34;4990581;28;20275;-75
2023/12/18 02:21:22;;;;;;;2.40;2.20;;;;;;;-1.01;100.00;96369.28;4990789;28;20220;-75
2023/12/18 02:23:51;;;;;;;5.72;2.70;;;;;;;-1.07;100.00;96372.78;4990626;28;20709;-75
2023/12/18 02:26:18;;;;;;;11.85;4.35;;;;;;;-1.05;100.00;96377.88;4990464;28;20221;-74
2023/12/18 02:28:45;;;;;;;7.93;2.60;;;;;;;-0.82;100.00;96373.66;4990626;28;20225;-75
2023/12/18 02:31:14;;;;;;;6.05;2.85;;;;;;;-0.54;100.00;96369.81;4990706;28;20217;-74
2023/12/18 02:33:41;;;;;;;7.07;2.80;;;;;;;-0.43;100.00;96361.16;4990105;28;20218;-74
2023/12/18 02:36:08;;;;;;;2.80;2.03;;;;;;;-0.56;100.00;96366.59;4990666;28;20305;-73
2023/12/18 02:38:35;;;;;;;6.13;2.55;;;;;;;-0.53;100.00;96368.78;5002548;28;20316;-75
2023/12/18 02:41:04;;;;;;;3.97;2.63;;;;;;;-0.45;99.77;96360.56;4990302;28;20264;-75
2023/12/18 02:43:31;;;;;;;8.35;3.40;;;;;;;-0.48;99.36;96347.69;4990407;28;20210;-76
2023/12/18 02:45:58;;;;;;;5.18;2.42;;;;;;;-0.64;100.00;96364.16;4990572;28;20267;-76
2023/12/18 02:48:25;;;;;;;0.35;0.35;;;;;;;-0.44;99.84;96359.53;4990405;28;20230;-75
2023/12/18 02:50:52;;;;;;;0.30;0.30;;;;;;;-0.43;99.81;96361.16;4990563;28;20356;-74
2023/12/18 02:53:18;;;;;;;0.20;0.20;;;;;;;-0.50;99.36;96371.03;4990885;28;20250;-72
2023/12/18 02:55:45;;;;;;;0.20;0.20;;;;;;;-0.61;98.64;96369.06;4990337;28;20218;-76
2023/12/18 02:58:13;;;;;;;0.22;0.22;;;;;;;-0.72;99.27;96350.09;4990826;28;20220;-75
2023/12/18 03:00:40;;;;;;;0.70;0.70;;;;;;;-0.90;100.00;96376.59;4990493;28;20209;-78
2023/12/18 03:03:07;;;;;;;0.47;0.47;;;;;;;-0.70;99.28;96381.00;4990243;28;20209;-76
2023/12/18 03:05:34;;;;;;;0.20;0.20;;;;;;;-0.82;99.50;96362.25;4990036;28;20210;-77
2023/12/18 03:08:00;;;;;;;0.20;0.20;;;;;;;-1.03;100.00;96376.66;4990353;28;20229;-77
2023/12/18 03:10:27;;;;;;;0.50;0.50;;;;;;;-1.12;100.00;96385.91;4994393;28;20210;-75
2023/12/18 03:12:54;;;;;;;0.40;0.40;;;;;;;-1.10;100.00;96378.53;4994205;28;20213;-74
2023/12/18 03:15:22;;;;;;;0.45;0.38;;;;;;;-1.06;100.00;96371.75;4994045;28;20214;-75
2023/12/18 03:17:49;;;;;;;0.20;0.20;;;;;;;-0.98;100.00;96368.88;4993880;28;20281;-75
2023/12/18 03:20:16;;;;;;;2.38;0.95;;;;;;;-0.96;100.00;96360.69;4993895;28;20268;-75
2023/12/18 03:22:43;;;;;;;0.30;0.30;;;;;;;-0.79;100.00;96378.56;4994100;28;20265;-74
2023/12/18 03:25:10;;;;;;;2.42;1.33;;;;;;;-0.68;100.00;96378.94;4993836;28;20404;-75
2023/12/18 03:27:36;;;;;;;0.20;0.20;;;;;;;-0.63;99.20;96382.56;4993919;28;20245;-76
2023/12/18 03:30:04;;;;;;;0.38;0.38;;;;;;;-0.64;98.98;96377.47;4993788;28;20212;-74
2023/12/18 03:32:32;;;;;;;0.20;0.20;;;;;;;-0.75;98.44;96366.47;4993437;28;20213;-75
2023/12/18 03:34:59;;;;;;;0.30;0.30;;;;;;;-0.68;97.94;96362.97;4993650;28;20280;-74
2023/12/18 03:37:26;;;;;;;4.30;2.50;;;;;;;-0.67;98.51;96364.56;4993993;28;21041;-74
2023/12/18 03:39:53;;;;;;;6.57;2.92;;;;;;;-0.76;99.47;96351.53;4993159;28;20253;-76
2023/12/18 03:42:19;;;;;;;3.90;2.30;;;;;;;-0.62;99.00;96356.78;4993623;28;20223;-76
2023/12/18 03:44:46;;;;;;;1.65;0.70;;;;;;;-0.94;99.32;96348.78;4993851;28;20573;-76
2023/12/18 03:47:13;;;;;;;0.20;0.20;;;;;;;-1.06;100.00;96339.84;4993903;28;20276;-76
2023/12/18 03:49:41;;;;;;;0.20;0.20;;;;;;;-1.02;100.00;96350.88;4993572;28;20642;-76
2023/12/18 03:52:08;;;;;;;0.40;0.40;;;;;;;-1.05;100.00;96351.28;4993301;28;20220;-78
2023/12/18 03:54:35;;;;;;;0.25;0.25;;;;;;;-0.94;100.00;96350.63;4993746;28;20213;-79
2023/12/18 03:57:02;;;;;;;0.20;0.20;;;;;;;-1.28;100.00;96354.47;4993253;28;20218;-77
2023/12/18 03:59:28;;;;;;;0.50;0.50;;;;;;;-1.01;100.00;96353.31;4993068;28;20206;-78
2023/12/18 04:01:55;;;;;;;0.52;0.52;;;;;;;-1.11;100.00;96358.28;4993048;28;20221;-76
2023/12/18 04:04:22;;;;;;;0.25;0.25;;;;;;;-0.91;100.00;96353.66;4993432;28;20213;-77
2023/12/18 04:06:50;;;;;;;0.20;0.20;;;;;;;-0.97;100.00;96359.88;4992823;28;20217;-76
2023/12/18 04:09:17;;;;;;;0.63;0.63;;;;;;;-0.69;100.00;96358.69;4993092;28;20223;-77
2023/12/18 04:11:44;;;;;;;1.00;0.90;;;;;;;-0.63;100.00;96365.78;4992919;28;20312;-74
2023/12/18 04:14:11;;;;;;;0.63;0.63;;;;;;;5.07;100.00;96334.00;4993323;28;20673;-73
2023/12/18 04:16:37;;;;;;;0.20;0.20;;;;;;;3.15;100.00;96343.31;4993001;28;20313;-75
2023/12/18 04:19:04;;;;;;;0.43;0.43;;;;;;;1.60;100.00;96361.78;4992460;28;20609;-75
2023/12/18 04:21:31;;;;;;;0.35;0.35;;;;;;;0.66;100.00;96352.56;4991802;28;20309;-76
2023/12/18 04:23:59;;;;;;;1.80;1.33;;;;;;;0.21;100.00;96362.66;4993035;28;20663;-76
2023/12/18 04:26:26;;;;;;;0.40;0.40;;;;;;;-0.13;100.00;96356.00;4993307;28;20625;-76
2023/12/18 04:28:53;;;;;;;0.20;0.20;;;;;;;-0.63;100.00;96365.78;4991944;28;20243;-76
2023/12/18 04:31:21;;;;;;;0.20;0.20;;;;;;;-0.96;100.00;96358.84;4993133;28;20652;-75
2023/12/18 04:33:48;;;;;;;1.65;0.68;;;;;;;-0.77;100.00;96352.56;4992551;28;20256;-75
2023/12/18 04:36:15;;;;;;;1.40;0.65;;;;;;;-0.74;100.00;96354.81;4992307;28;20281;-75
2023/12/18 04:38:43;;;;;;;0.20;0.20;;;;;;;-0.69;100.00;96354.19;4992252;28;20253;-76
2023/12/18 04:41:19;;;;;;;0.22;0.22;;;;;;;-1.12;100.00;96354.00;4992783;28;20214;-76
2023/12/18 04:43:46;;;;;;;0.63;0.57;;;;;;;-1.56;100.00;96355.59;4992462;28;20298;-76
2023/12/18 04:46:13;;;;;;;0.40;0.40;;;;;;;-1.48;100.00;96365.97;4991400;28;20214;-76
2023/12/18 04:48:39;;;;;;;2.63;1.27;;;;;;;-1.41;100.00;96362.50;4991362;28;20613;-76
2023/12/18 04:51:06;;;;;;;7.47;3.55;;;;;;;-1.30;100.00;96364.50;4991375;28;20264;-76
2023/12/18 04:53:33;;;;;;;6.20;3.20;;;;;;;-1.09;100.00;96362.34;4991945;28;20240;-75
2023/12/18 04:56:00;;;;;;;6.63;3.05;;;;;;;-0.99;100.00;96359.25;4991899;28;20225;-76
2023/12/18 04:58:30;;;;;;;2.38;1.70;;;;;;;-0.97;100.00;96359.88;4992035;28;20214;-74
2023/12/18 05:00:57;;;;;;;4.88;3.17;;;;;;;-0.97;100.00;96351.88;4991329;28;20224;-76
2023/12/18 05:03:24;;;;;;;10.50;3.03;;;;;;;-1.17;100.00;96362.59;4974725;28;20229;-76
2023/12/18 05:05:51;;;;;;;7.47;3.53;;;;;;;-1.32;100.00;96361.22;4991204;28;20222;-76
2023/12/18 05:08:18;;;;;;;9.25;3.88;;;;;;;-1.13;100.00;96361.16;4991404;28;20242;-75
2023/12/18 05:10:45;;;;;;;7.78;3.85;;;;;;;-0.88;100.00;96347.94;4991641;28;20209;-75
2023/12/18 05:13:11;;;;;;;5.93;3.75;;;;;;;-0.62;100.00;96356.78;4991912;28;20209;-76
2023/12/18 05:15:40;;;;;;;6.25;2.65;;;;;;;-0.70;100.00;96359.72;4991530;28;20222;-75
2023/12/18 05:18:07;;;;;;;0.20;0.20;;;;;;;-0.57;100.00;96370.28;4991332;28;20319;-75
2023/12/18 05:20:34;;;;;;;0.20;0.20;;;;;;;-0.72;100.00;96360.75;4991999;28;20300;-76
2023/12/18 05:23:01;;;;;;;0.90;0.90;;;;;;;-0.92;100.00;96373.31;4991944;28;20636;-75
2023/12/18 05:25:27;;;;;;;0.82;0.82;;;;;;;-0.60;100.00;96354.72;4991718;28;20209;-76
2023/12/18 05:27:54;;;;;;;0.20;0.20;;;;;;;-0.66;100.00;96355.56;4990804;28;20213;-75
2023/12/18 05:30:21;;;;;;;0.20;0.20;;;;;;;-0.56;100.00;96348.75;4991446;28;20355;-76
2023/12/18 05:32:49;;;;;;;0.20;0.20;;;;;;;-0.51;99.41;96348.09;4990936;28;20621;-77
2023/12/18 05:35:17;;;;;;;0.22;0.22;;;;;;;-0.50;99.21;96344.41;4991812;28;20244;-76
2023/12/18 05:37:43;;;;;;;0.60;0.60;;;;;;;-0.69;99.15;96350.69;4974311;28;20217;-76
2023/12/18 05:40:11;;;;;;;0.20;0.20;;;;;;;-1.00;100.00;96343.50;4991355;28;20244;-75
2023/12/18 05:42:38;;;;;;;0.20;0.20;;;;;;;-0.98;100.00;96352.09;4991834;28;20705;-76
2023/12/18 05:45:05;;;;;;;2.13;1.42;;;;;;;-0.57;100.00;96355.13;4991793;28;20588;-76
2023/12/18 05:47:32;;;;;;;0.20;0.20;;;;;;;-0.38;100.00;96348.00;4991851;28;20210;-76
2023/12/18 05:50:00;;;;;;;0.25;0.25;;;;;;;-0.31;98.72;96359.44;4991310;28;20609;-73
2023/12/18 05:52:27;;;;;;;0.20;0.20;;;;;;;-0.43;97.79;96355.84;4991349;28;20576;-74
2023/12/18 05:54:54;;;;;;;0.73;0.73;;;;;;;-0.68;97.98;96362.97;4991343;28;20209;-75
2023/12/18 05:57:26;;;;;;;0.80;0.80;;;;;;;-0.77;99.13;96363.22;4991534;28;20649;-76
2023/12/18 05:59:53;;;;;;;0.47;0.47;;;;;;;-0.81;98.39;96363.84;4991330;28;20549;-76
2023/12/18 06:02:20;;;;;;;2.63;1.65;;;;;;;-0.87;99.21;96360.22;4984813;28;20213;-75
2023/12/18 06:04:47;;;;;;;0.30;0.30;;;;;;;-0.80;98.64;96368.13;4982391;28;20260;-74
2023/12/18 06:07:16;;;;;;;0.30;0.30;;;;;;;-0.62;98.05;96372.75;4982958;28;20602;-75
2023/12/18 06:09:42;;;;;;;0.20;0.20;;;;;;;-0.49;98.68;96367.34;4982781;28;20598;-76
2023/12/18 06:12:12;;;;;;;0.93;0.93;;;;;;;-0.36;97.49;96365.41;4980061;28;20611;-75
2023/12/18 06:14:40;;;;;;;0.20;0.20;;;;;;;0.11;96.69;96362.34;4982998;28;20237;-74
2023/12/18 06:17:07;;;;;;;0.30;0.30;;;;;;;0.46;95.70;96358.09;4983899;28;20577;-76
2023/12/18 06:19:34;;;;;;;0.20;0.20;;;;;;;0.99;93.86;96370.81;4984185;28;20582;-75
2023/12/18 06:22:01;;;;;;;0.82;0.82;;;;;;;1.18;92.45;96347.59;4983461;28;20216;-75
2023/12/18 06:24:29;;;;;;;0.20;0.20;;;;;;;1.15;92.03;96361.38;4982111;28;20252;-75
2023/12/18 06:26:57;;;;;;;0.55;0.55;;;;;;;0.87;91.67;96360.09;4983173;28;20614;-75
2023/12/18 06:29:25;;;;;;;0.82;0.82;;;;;;;0.62;92.64;96365.53;4983262;28;20341;-74
2023/12/18 06:31:52;;;;;;;0.20;0.20;;;;;;;0.37;92.99;96367.44;4979020;28;20209;-75
2023/12/18 06:34:19;;;;;;;0.20;0.20;;;;;;;0.25;94.00;96359.34;4981255;28;20213;-76
2023/12/18 06:36:46;;;;;;;0.25;0.25;;;;;;;0.14;95.31;96356.56;4989815;28;20229;-77
2023/12/18 06:39:13;;;;;;;0.20;0.20;;;;;;;0.23;95.88;96356.09;4990558;28;20238;-76
2023/12/18 06:41:42;;;;;;;0.32;0.32;;;;;;;0.12;96.13;96350.66;4990814;28;20217;-76
2023/12/18 06:44:09;;;;;;;0.20;0.20;;;;;;;0.22;95.83;96348.31;4990034;28;20213;-76
2023/12/18 06:46:35;;;;;;;0.20;0.20;;;;;;;0.31;95.47;96341.66;4990780;28;20214;-76
2023/12/18 06:49:02;;;;;;;0.55;0.55;;;;;;;0.44;94.61;96340.69;4988740;28;20226;-76
2023/12/18 06:51:29;;;;;;;0.45;0.45;;;;;;;0.46;96.34;96346.63;4985696;28;20288;-76
2023/12/18 06:53:56;;;;;;;0.20;0.20;;;;;;;0.30;95.47;96348.00;4978383;28;20199;-76
2023/12/18 06:56:23;;;;;;;0.20;0.20;;;;;;;0.52;96.19;96343.91;4990692;28;20264;-75
2023/12/18 06:58:51;;;;;;;0.20;0.20;;;;;;;0.30;95.98;96340.03;4990919;28;20210;-75
2023/12/18 07:01:18;;;;;;;0.20;0.20;;;;;;;0.00;98.17;96338.03;4990589;28;20209;-76
2023/12/18 07:03:45;;;;;;;0.20;0.20;;;;;;;0.16;97.99;96351.84;4990845;28;20615;-76
2023/12/18 07:06:12;;;;;;;0.25;0.25;;;;;;;0.18;97.66;96347.13;4989748;28;20221;-76
2023/12/18 07:08:39;;;;;;;0.63;0.63;;;;;;;2.23;100.00;96350.47;4972714;28;20233;-74
2023/12/18 07:11:06;;;;;;;0.20;0.20;;;;;;;2.60;100.00;96356.41;4990286;28;20578;-75
2023/12/18 07:13:32;;;;;;;0.90;0.88;;;;;;;1.46;100.00;96355.81;4998663;28;20263;-76
2023/12/18 07:16:01;;;;;;;1.05;0.95;;;;;;;1.19;100.00;96362.56;4979300;28;20209;-75
2023/12/18 07:18:27;;;;;;;0.20;0.20;;;;;;;1.17;100.00;96357.47;4989445;28;20221;-76
2023/12/18 07:20:55;;;;;;;0.20;0.20;;;;;;;1.48;100.00;96363.63;4989729;28;20578;-77
2023/12/18 07:23:22;;;;;;;4.68;1.45;;;;;;;1.56;98.14;96357.94;4989796;28;20276;-76
2023/12/18 07:25:49;;;;;;;1.95;0.85;;;;;;;1.59;96.42;96357.50;4989905;28;20205;-76
2023/12/18 07:28:15;;;;;;;0.55;0.55;;;;;;;1.30;96.34;96361.81;4989630;28;20237;-75
2023/12/18 07:30:42;;;;;;;0.30;0.30;;;;;;;1.09;96.06;96349.78;4989690;28;20237;-75
2023/12/18 07:33:11;;;;;;;0.20;0.20;;;;;;;1.17;95.99;96354.78;4989510;28;20228;-76
2023/12/18 07:35:37;;;;;;;0.90;0.77;;;;;;;1.50;95.15;96350.84;4989921;28;20212;-76
2023/12/18 07:38:04;;;;;;;0.75;0.75;;;;;;;1.62;96.01;96349.03;4989335;28;20233;-75
2023/12/18 07:40:31;;;;;;;0.20;0.20;;;;;;;1.83;94.61;96351.16;4989475;28;20284;-76
2023/12/18 07:42:58;;;;;;;0.40;0.40;;;;;;;1.81;94.34;96349.75;4971919;28;20268;-76
2023/12/18 07:45:25;;;;;;;0.40;0.40;;;;;;;1.87;93.92;96346.97;4989856;28;20210;-75
2023/12/18 07:47:52;;;;;;;0.30;0.30;;;;;;;1.70;94.49;96340.66;4989831;28;20627;-75
2023/12/18 07:50:20;;;;;;;1.30;0.80;;;;;;;1.85;93.59;96346.38;4989690;28;20237;-75
2023/12/18 07:52:47;;;;;;;0.20;0.20;;;;;;;1.94;92.90;96339.66;4989725;28;20202;-76
2023/12/18 07:55:13;;;;;;;0.30;0.30;;;;;;;1.87;93.46;96344.31;4991403;28;20628;-77
2023/12/18 07:57:42;;;;;;;3.40;1.55;;;;;;;1.53;92.70;96334.34;4992786;28;20296;-77
2023/12/18 08:00:10;;;;;;;0.60;0.60;;;;;;;1.38;95.01;96337.44;4992951;28;20667;-76
2023/12/18 08:02:36;;;;;;;0.70;0.70;;;;;;;1.36;95.08;96340.38;4993065;28;20205;-76
2023/12/18 08:05:03;;;;;;;0.47;0.47;;;;;;;1.62;94.33;96333.00;4993028;28;20214;-76
2023/12/18 08:07:31;;;;;;;0.60;0.60;;;;;;;1.86;94.97;96337.34;4993017;28;20224;-76
2023/12/18 08:09:59;;;;;;;0.30;0.30;;;;;;;2.14;93.13;96333.97;4992537;28;20237;-78
2023/12/18 08:12:25;;;;;;;0.30;0.30;;;;;;;2.35;91.27;96337.91;4993082;28;20209;-77
2023/12/18 08:14:54;;;;;;;0.95;0.95;;;;;;;2.33;91.61;96331.97;4992741;28;20303;-77
2023/12/18 08:17:20;;;;;;;0.25;0.25;;;;;;;2.12;92.36;96333.41;4992711;28;20626;-77
2023/12/18 08:19:48;;;;;;;0.55;0.50;;;;;;;2.43;92.35;96335.72;4992764;28;20213;-78
2023/12/18 08:22:14;;;;;;;0.50;0.50;;;;;;;2.54;92.20;96342.09;4992984;28;20625;-78
2023/12/18 08:24:43;;;;;;;0.57;0.47;;;;;;;2.94;91.48;96335.97;4992888;28;20607;-78
2023/12/18 08:27:09;;;;;;;0.50;0.50;;;;;;;3.35;90.76;96326.84;4994731;28;20236;-78
2023/12/18 08:29:39;;;;;;;0.80;0.40;;;;;;;3.36;90.67;96339.19;5000889;28;20237;-78
2023/12/18 08:32:07;;;;;;;0.60;0.60;;;;;;;3.38;86.92;96342.44;4999523;28;20218;-79
2023/12/18 08:34:33;;;;;;;0.73;0.73;;;;;;;3.04;88.19;96326.25;4995874;28;20594;-77
2023/12/18 08:37:00;;;;;;;0.57;0.57;;;;;;;3.43;88.96;96339.84;4995821;28;20574;-78
2023/12/18 08:39:27;;;;;;;0.60;0.60;;;;;;;2.98;88.19;96337.94;4994442;28;20244;-77
2023/12/18 08:41:55;;;;;;;0.73;0.73;;;;;;;2.92;87.64;96343.41;4981762;28;20220;-78
2023/12/18 08:44:22;;;;;;;0.40;0.38;;;;;;;2.92;89.98;96328.16;4995368;28;20213;-78
2023/12/18 08:46:49;;;;;;;2.85;1.98;;;;;;;2.68;88.14;96323.94;4993549;28;20241;-76
2023/12/18 08:49:16;;;;;;;0.30;0.30;;;;;;;2.56;88.97;96331.97;4993135;28;20237;-78
2023/12/18 08:51:42;;;;;;;0.22;0.22;;;;;;;2.49;89.71;96337.44;4992518;28;20221;-78
2023/12/18 08:54:09;;;;;;;0.77;0.77;;;;;;;2.76;88.58;96324.38;4992350;28;20202;-78
2023/12/18 08:56:36;;;;;;;0.68;0.68;;;;;;;2.84;89.50;96318.66;4991724;28;20213;-78
2023/12/18 08:59:05;;;;;;;0.20;0.20;;;;;;;2.96;89.35;96333.88;4992648;28;20210;-78
2023/12/18 09:01:36;;;;;;;1.02;0.93;;;;;;;3.21;89.02;96316.44;4991620;28;20206;-78
2023/12/18 09:04:03;;;;;;;1.98;1.67;;;;;;;3.65;88.22;96315.84;4991889;28;20368;-79
2023/12/18 09:06:30;;;;;;;0.50;0.50;;;;;;;3.66;86.00;96318.31;4991187;28;20213;-78
2023/12/18 09:08:58;;;;;;;0.20;0.20;;;;;;;4.04;86.48;96314.06;4992125;28;20225;-79
2023/12/18 09:11:27;;;;;;;0.55;0.45;;;;;;;4.05;86.53;96311.16;4991347;28;20228;-79
2023/12/18 09:13:54;;;;;;;0.20;0.20;;;;;;;4.15;84.92;96305.13;4991796;28;20315;-78
2023/12/18 09:16:22;;;;;;;0.40;0.40;;;;;;;4.01;84.62;96304.66;4992290;28;20578;-75
2023/12/18 09:18:49;;;;;;;0.28;0.28;;;;;;;3.36;86.08;96313.22;4991556;28;20217;-78
2023/12/18 09:21:16;;;;;;;1.25;1.25;;;;;;;3.38;86.91;96305.75;4994210;28;20217;-79
2023/12/18 09:23:44;;;;;;;0.38;0.38;;;;;;;3.51;86.48;96296.59;4991770;28;20228;-80
2023/12/18 09:26:12;;;;;;;1.35;1.30;;;;;;;3.74;86.47;96301.00;4991578;28;20626;-76
2023/12/18 09:28:39;;;;;;;1.52;0.98;;;;;;;3.84;85.94;96293.09;4991331;28;20606;-77
2023/12/18 09:31:07;;;;;;;0.80;0.80;;;;;;;3.89;85.18;96280.63;4990916;28;20234;-77
2023/12/18 09:33:35;;;;;;;1.30;1.23;;;;;;;3.85;86.54;96275.97;4991058;28;20206;-77
2023/12/18 09:36:02;;;;;;;0.60;0.60;;;;;;;3.56;85.31;96269.88;4991211;28;20551;-76
2023/12/18 09:38:29;;;;;;;0.75;0.75;;;;;;;3.65;85.74;96283.69;4990487;28;20283;-76
2023/12/18 09:40:56;;;;;;;3.60;0.75;;;;;;;4.02;85.53;96268.75;4991118;28;20672;-77
2023/12/18 09:43:23;;;;;;;0.52;0.52;;;;;;;3.96;85.38;96266.25;4991064;28;20225;-77
2023/12/18 09:45:50;;;;;;;0.30;0.30;;;;;;;4.14;87.62;96256.03;4991552;28;20211;-77
2023/12/18 09:48:17;;;;;;;1.60;1.50;;;;;;;4.62;85.18;96257.22;4991537;28;20586;-77
2023/12/18 09:50:46;;;;;;;1.33;0.55;;;;;;;4.90;84.87;96253.53;4991069;28;20587;-77
2023/12/18 09:53:17;;;;;;;1.75;1.65;;;;;;;5.02;82.83;96242.66;4990436;28;20245;-76
2023/12/18 09:55:45;;;;;;;2.28;1.83;;;;;;;5.18;83.14;96239.06;4991105;28;20221;-76
2023/12/18 09:58:14;;;;;;;0.50;0.50;;;;;;;4.97;82.00;96248.75;4990697;28;20248;-77
2023/12/18 10:00:41;;;;;;;1.25;1.10;;;;;;;4.72;82.20;96248.47;4990625;28;20631;-77
2023/12/18 10:03:08;;;;;;;0.90;0.88;;;;;;;4.96;82.72;96247.13;4989999;28;20234;-78
2023/12/18 10:05:35;;;;;;;0.85;0.85;;;;;;;5.00;81.89;96238.34;4989683;28;20210;-77
2023/12/18 10:08:05;;;;;;;0.43;0.43;;;;;;;7.00;100.00;96224.09;4990758;28;20268;-80
2023/12/18 10:10:32;;;;;;;1.05;1.00;;;;;;;6.50;89.63;96224.72;4990295;28;20237;-79
2023/12/18 10:12:59;;;;;;;0.90;0.90;;;;;;;6.59;90.86;96233.09;4990420;28;20222;-78
2023/12/18 10:15:26;;;;;;;0.70;0.70;;;;;;;6.29;83.11;96229.16;4993288;28;20205;-78
2023/12/18 10:17:54;;;;;;;3.67;2.38;;;;;;;6.15;81.30;96217.25;4974886;28;20267;-78
2023/12/18 10:20:21;;;;;;;1.27;1.17;;;;;;;6.14;79.36;96221.03;4996763;28;20201;-78
2023/12/18 10:22:48;;;;;;;1.52;1.42;;;;;;;5.79;80.07;96213.50;4992926;28;20229;-79
2023/12/18 10:25:16;;;;;;;0.80;0.80;;;;;;;5.24;80.19;96221.91;4992148;28;20214;-79
2023/12/18 10:27:43;;;;;;;0.43;0.43;;;;;;;5.06;80.54;96219.59;4991404;28;20210;-80
2023/12/18 10:30:11;;;;;;;0.40;0.40;;;;;;;5.21;81.36;96228.59;4991545;28;20225;-79
2023/12/18 10:32:39;;;;;;;2.40;2.13;;;;;;;5.37;81.35;96213.44;4994100;28;20809;-80
2023/12/18 10:35:08;;;;;;;1.75;1.65;;;;;;;5.24;81.71;96216.53;4996164;28;20216;-80
2023/12/18 10:37:48;;;;;;;5.32;2.85;;;;;;;5.04;82.42;96205.59;4998437;28;20217;-81
2023/12/18 10:40:20;;;;;;;3.42;1.02;;;;;;;5.02;82.15;96197.00;4997892;28;20241;-82
2023/12/18 10:42:56;;;;;;;1.17;1.17;;;;;;;5.29;81.75;96195.91;4998225;28;20210;-82
2023/12/18 10:45:25;;;;;;;2.28;1.48;;;;;;;5.49;83.01;96197.94;4997797;28;20209;-81
2023/12/18 10:47:54;;;;;;;2.33;1.83;;;;;;;4.97;81.87;96187.81;4997659;28;20272;-80
2023/12/18 10:50:23;;;;;;;2.00;1.70;;;;;;;5.30;83.38;96177.91;4998744;28;20293;-81
2023/12/18 10:52:52;;;;;;;3.50;2.75;;;;;;;5.56;83.81;96174.34;5001072;28;20232;-80
2023/12/18 10:55:21;;;;;;;0.43;0.43;;;;;;;5.83;81.45;96166.22;4999732;28;20666;-80
2023/12/18 10:57:50;;;;;;;0.68;0.68;;;;;;;5.70;82.24;96159.41;5002178;28;20244;-80
2023/12/18 11:00:18;;;;;;;2.22;2.03;;;;;;;5.78;82.02;96163.47;4998538;28;20601;-80
2023/12/18 11:02:46;;;;;;;5.13;2.53;;;;;;;5.54;80.35;96157.66;4998376;28;20209;-80
2023/12/18 11:05:14;;;;;;;0.45;0.45;;;;;;;5.48;81.74;96153.31;4996932;28;20205;-79
2023/12/18 11:07:42;;;;;;;0.40;0.40;;;;;;;5.84;84.00;96140.13;5000485;28;20220;-81
2023/12/18 11:10:09;;;;;;;0.55;0.55;;;;;;;6.07;82.43;96143.22;5004211;28;20257;-81
2023/12/18 11:12:41;;;;;;;1.20;1.20;;;;;;;6.24;80.46;96129.59;5006265;28;20276;-81
2023/12/18 11:15:15;;;;;;;1.15;1.05;;;;;;;6.48;80.11;96129.13;5005152;28;20316;-82
2023/12/18 11:17:55;;;;;;;2.10;1.75;;;;;;;6.45;79.57;96129.66;5004858;28;20210;-81
2023/12/18 11:20:26;;;;;;;2.13;1.48;;;;;;;6.65;78.43;96116.28;5007731;28;20296;-82
2023/12/18 11:22:56;;;;;;;5.97;1.85;;;;;;;6.64;79.42;96122.72;5004020;28;20272;-83
2023/12/18 11:25:28;;;;;;;1.75;1.60;;;;;;;6.90;77.19;96112.81;5005741;28;20210;-83
2023/12/18 11:27:57;;;;;;;2.25;2.15;;;;;;;6.89;78.85;96108.50;5007049;28;20671;-79
2023/12/18 11:30:27;;;;;;;0.95;0.88;;;;;;;6.91;77.90;96112.53;5008397;28;20244;-82
2023/12/18 11:32:54;;;;;;;16.33;9.13;;;;;;;6.80;77.29;96110.09;5008968;28;20214;-84
2023/12/18 11:35:28;;;;;;;1.48;1.38;;;;;;;6.99;78.42;96106.63;4994854;28;20216;-82